Meteo Giornale » Osservazioni meteo Italia » Bologna-Borgo Panigale

ore: 01:50 - Osservazioni Meteo Bologna-Borgo Panigale
Lat. 44° 32' N Lon. 11° 18' E Alt. 36 metri s.l.m.

sereno Europe/Rome

18 °C

Sereno

Temp. 24 Ore

18 °C

31 °C

Nord

3.7 Km/h

Dew point 16 °C

Umidità 88 %

Visibilità  10 Km

Il sole sorge alle ore 05:31

Il sole tramonta alle ore 21:05

Data e Ora Cielo e Fenomeni T °C DP °C Um. % Pres. hPa Vis. km Vento km/h
Oggi h: 01:50 sereno Sereno 18 16 88 1000 10 N 3.7
Oggi h: 01:20 sereno Sereno 19 16 82 1000 10 O 7.4
Oggi h: 00:50 sereno Sereno 20 16 77 1000 10 S 13
Oggi h: 00:20 sereno Sereno 18 17 93 1000 10 S/SE 9.3
Ieri h: 23:50 poco_nuvoloso Poco Nuvoloso 18 17 93 1000 10 E 7.4
Ieri h: 23:20 poco_nuvoloso Poco Nuvoloso 18 17 93 1000 10 N 3.7
Ieri h: 22:50 poco_nuvoloso Poco Nuvoloso 18 17 93 1000 10 N 5.5
Ieri h: 22:20 nuvoloso Nuvoloso 19 18 93 1000 10 N 5.5
Ieri h: 21:50 nuvoloso Nuvoloso 19 18 93 1000 10 E 9.3
Ieri h: 21:20 nuvoloso Nuvoloso 19 18 93 1000 10 N 5.5
Ieri h: 20:50 nuvoloso Nuvoloso 20 18 88 1000 10 N 7.4
Ieri h: 20:20 coperto_temporali Temporale 20 17 82 1000 10 O/NO 7.4
Ieri h: 19:50 nuvoloso_temporali Temporale con Pioggia Debole 20 17 82 1000 8 N 14.8
Ieri h: 19:20 nuvoloso_temporali Temporale con Pioggia Debole 22 18 78 1002 8 O 20.3
Ieri h: 18:50 nuvoloso_temporali Temporale con Pioggia Debole 23 18 73 1000 10 N 7.4
Ieri h: 18:20 coperto_pioggia Pioggia Debole 25 17 61 1000 10 S/SO 9.3
Ieri h: 17:50 nuvoloso Nuvoloso 26 16 54 1000 10 S 16.7
Ieri h: 17:20 nuvoloso Nuvoloso 26 16 54 1000 10 S/SE 25.9
Ieri h: 16:50 molto_nuvoloso Molto Nuvoloso 25 17 61 1000 10 S 18.5
Ieri h: 16:20 coperto_pioggia Pioggia Debole 26 17 57 1001 10 S/SO 20.3
Ieri h: 15:50 nuvoloso Nuvoloso 28 17 51 1001 10 S 13
Ieri h: 15:20 nuvoloso Nuvoloso 28 17 51 1001 10 S 9.3
Ieri h: 14:50 nuvoloso Nuvoloso 26 16 54 1002 10 S 16.7
Ieri h: 14:20 nuvoloso Nuvoloso 25 16 57 1002 10 S 25.9
Ieri h: 13:50 nuvoloso_temporali Temporale con Pioggia Debole 24 17 64 1002 10 S 33.3
Ieri h: 13:20 coperto_temporali Temporale Rovescio nelle Vicinanze 29 18 51 1003 10 S/SO 18.5
Ieri h: 12:50 nuvoloso Nuvoloso 29 17 48 1002 10 S 20.3
Ieri h: 12:20 poco_nuvoloso Poco Nuvoloso 30 16 42 1003 10 S/SO 25.9
Ieri h: 11:50 poco_nuvoloso Poco Nuvoloso 31 17 43 1003 10 S/SO 24
Ieri h: 11:20 poco_nuvoloso Poco Nuvoloso 30 17 45 1003 10 S 24
Ieri h: 10:50 poco_nuvoloso Poco Nuvoloso 30 17 45 1004 10 S 29.6
Ieri h: 10:20 poco_nuvoloso Poco Nuvoloso 30 18 48 1004 10 S 25.9
Ieri h: 09:50 poco_nuvoloso Poco Nuvoloso 29 17 48 1004 10 S/SO 27.8
Ieri h: 09:20 poco_nuvoloso Poco Nuvoloso 28 18 54 1004 10 S 22.2
Ieri h: 08:50 poco_nuvoloso Poco Nuvoloso 27 18 57 1004 10 S/SO 16.7
Ieri h: 08:20 poco_nuvoloso Poco Nuvoloso 26 18 61 1004 10 S 20.3
Ieri h: 07:50 poco_nuvoloso Poco Nuvoloso 27 18 57 1004 10 N 5.5
Ieri h: 07:20 sereno Sereno 24 19 73 1005 10 N 9.3
Ieri h: 06:50 sereno Sereno 22 20 88 1004 10 N 3.7
Ieri h: 06:20 sereno Sereno 21 19 88 1005 10 SE 9.3
Ieri h: 05:50 sereno Sereno 21 19 88 1005 10 N 5.5
Ieri h: 05:20 sereno Sereno 21 20 94 1005 8 N 5.5
Ieri h: 04:50 sereno Sereno 21 20 94 1005 10 N 5.5
Ieri h: 04:20 sereno Sereno 21 20 94 1006 10 N 3.7
Ieri h: 03:50 sereno Sereno 22 20 88 1005 10 O 11.1
Ieri h: 03:20 sereno Sereno 22 20 88 1005 10 S 9.3
Ieri h: 02:50 sereno Sereno 22 21 94 1005 10 S 11.1